Seward Airport
PAWD : now visible

Airfield :











YOU CAN JOIN US ON...

 
LOGIN :

Register | Disclaimer

   EN    FR    IT 

 









Legend :    VFR   Marginal VFR   IFR   Intensive IFR   Very Intensive IFR
Visi :
Ceiling :
>= 8 km
>= 3000ft
5 to 8 km
1000 to 3000 ft
1500m to 5 km
500 to 1000 ft
800 to 1500m
200 to 500 ft
< 800m
< 200 ft
Symbols :   Thunderstorms  Fog  Heavy snow  Heavy precipitations  Wind > 20 kt






- Airport Elevation : 22 ft
- IATA code : SWD


PAWD - Seward

CURRENT METAR :
  • 210253Z AUTO 31003KT 4SM BR OVC003 01/01 A2881 RMK AO2 SLP757 T00110006 52007 TSNO

EXPIRED METARs :
  • 210240Z AUTO 31003KT 7SM OVC003 01/00 A2881 RMK AO2 T00110000 TSNO
  • 210233Z AUTO 33003KT 1 3/4SM BR OVC003 01/00 A2881 RMK AO2 T00110000 TSNO
  • 210153Z AUTO 00000KT 1/4SM FG VV002 01/01 A2880 RMK AO2 SLP753 T00110006 TSNO
  • 210131Z AUTO 00000KT 9SM BKN003 BKN055 BKN090 02/01 A2880 RMK AO2 T00170006 TSNO
  • 210101Z AUTO 00000KT 10SM SCT003 BKN055 OVC110 02/01 A2879 RMK AO2 T00170006 TSNO
  • 210046Z AUTO 18003KT 10SM SCT003 BKN055 BKN120 02/01 A2879 RMK AO2 T00170006 TSNO
  • 202353Z AUTO 00000KT 9SM OVC060 02/01 A2878 RMK AO2 SLP747 60000 T00220006 10028 20006 56010 TSNO

TAF N/A



MET'MAP, your aeronautical weather chart ! - Copyright ORBIFLY December 2007 - Disclaimer

ORBIFLY MET'MAP TEAM :

Programming & Development : Alexandra Zaïnal
Concept & original design : Baudouin d'Aumeries
Assistance for programming : Marc-Olivier Méhu
Technical & hardware support : Manuel Goepfert

Contact : metmap@orbifly.com




SOURCES & CREDITS :

   NOAA       Earth
Advisory